Time;durP1;ratioP1;P1;durP2;ratioP2;P2;SDS_P1;SDS_P2;PMS_P1;PMS_P2;Temp;Humidity;BMP_temperature;BMP_pressure;BME280_temperature;BME280_humidity;BME280_pressure;Samples;Min_cycle;Max_cycle;Signal;HPM_P1;HPM_P2
2021/10/27 00:02:12;;;;;;;53.75;10.82;;;;;;;;;;5060480;28;20084;-67
2021/10/27 00:04:39;;;;;;;55.70;11.77;;;;;;;;;;5060555;28;20135;-67
2021/10/27 00:07:05;;;;;;;45.05;12.48;;;;;;;;;;5063128;28;20143;-67
2021/10/27 00:09:32;;;;;;;51.83;11.73;;;;;;;;;;5065196;28;20056;-67
2021/10/27 00:11:58;;;;;;;53.30;12.43;;;;;;;;;;5060918;28;20816;-67
2021/10/27 00:14:24;;;;;;;60.90;12.93;;;;;;;;;;5065269;28;20119;-67
2021/10/27 00:16:51;;;;;;;58.20;13.98;;;;;;;;;;5066202;28;20492;-67
2021/10/27 00:19:18;;;;;;;52.30;12.60;;;;;;;;;;5060043;28;20135;-67
2021/10/27 00:21:44;;;;;;;63.10;15.00;;;;;;;;;;5056714;28;20131;-67
2021/10/27 00:24:11;;;;;;;65.85;15.95;;;;;;;;;;5064893;28;20140;-67
2021/10/27 00:26:37;;;;;;;69.13;16.52;;;;;;;;;;5058884;28;20080;-67
2021/10/27 00:29:04;;;;;;;58.40;15.82;;;;;;;;;;5055055;28;20087;-67
2021/10/27 00:31:31;;;;;;;55.65;16.02;;;;;;;;;;5057087;28;20080;-67
2021/10/27 00:33:57;;;;;;;61.10;18.00;;;;;;;;;;5063269;28;20127;-67
2021/10/27 00:36:24;;;;;;;56.63;15.50;;;;;;;;;;5059436;28;20132;-67
2021/10/27 00:38:51;;;;;;;67.70;18.98;;;;;;;;;;5061721;28;20123;-67
2021/10/27 00:41:17;;;;;;;55.20;16.95;;;;;;;;;;5061490;28;20086;-67
2021/10/27 00:43:43;;;;;;;60.85;17.35;;;;;;;;;;5057778;28;20076;-67
2021/10/27 00:46:21;;;;;;;54.60;17.67;;;;;;;;;;5063709;28;20080;-67
2021/10/27 00:48:48;;;;;;;55.35;17.60;;;;;;;;;;5066011;28;20072;-67
2021/10/27 00:51:15;;;;;;;58.80;17.08;;;;;;;;;;5058786;28;20136;-67
2021/10/27 00:53:43;;;;;;;68.50;19.23;;;;;;;;;;5064426;28;20785;-67
2021/10/27 00:56:10;;;;;;;62.92;18.48;;;;;;;;;;5062140;28;20357;-67
2021/10/27 00:58:37;;;;;;;62.50;17.25;;;;;;;;;;5060857;28;20132;-67
2021/10/27 01:01:04;;;;;;;63.15;16.35;;;;;;;;;;5060958;28;20071;-67
2021/10/27 01:03:32;;;;;;;68.15;18.65;;;;;;;;;;5062937;28;20044;-67
2021/10/27 01:05:59;;;;;;;58.08;17.88;;;;;;;;;;5064054;28;20132;-67
2021/10/27 01:08:25;;;;;;;53.80;17.38;;;;;;;;;;5060149;28;20468;-67
2021/10/27 01:10:52;;;;;;;60.05;18.20;;;;;;;;;;5056695;28;20072;-67
2021/10/27 01:13:18;;;;;;;57.95;17.38;;;;;;;;;;5059986;28;20124;-67
2021/10/27 01:15:45;;;;;;;62.80;16.90;;;;;;;;;;5058965;28;20044;-67
2021/10/27 01:18:12;;;;;;;59.15;17.98;;;;;;;;;;5066003;28;20841;-67
2021/10/27 01:20:39;;;;;;;67.78;17.60;;;;;;;;;;5068300;28;20057;-67
2021/10/27 01:23:05;;;;;;;63.88;18.83;;;;;;;;;;5065364;28;20103;-67
2021/10/27 01:25:31;;;;;;;56.70;16.33;;;;;;;;;;5062987;28;20132;-68
2021/10/27 01:28:00;;;;;;;53.47;16.17;;;;;;;;;;5065255;28;20549;-67
2021/10/27 01:30:26;;;;;;;54.65;16.67;;;;;;;;;;5066855;28;20045;-68
2021/10/27 01:32:53;;;;;;;50.30;14.95;;;;;;;;;;5065689;28;20076;-67
2021/10/27 01:35:20;;;;;;;51.40;17.48;;;;;;;;;;5067675;28;20076;-67
2021/10/27 01:37:47;;;;;;;55.67;15.38;;;;;;;;;;5063293;28;20569;-67
2021/10/27 01:40:15;;;;;;;47.40;15.30;;;;;;;;;;5064007;28;20110;-67
2021/10/27 01:42:41;;;;;;;58.40;16.17;;;;;;;;;;5066107;28;20162;-68
2021/10/27 01:45:09;;;;;;;47.88;14.85;;;;;;;;;;5063639;28;20092;-67
2021/10/27 01:47:35;;;;;;;48.53;14.93;;;;;;;;;;5062624;28;20460;-67
2021/10/27 01:50:03;;;;;;;50.42;13.70;;;;;;;;;;5061847;28;20135;-68
2021/10/27 01:52:29;;;;;;;47.97;13.85;;;;;;;;;;5064805;28;20123;-68
2021/10/27 01:54:55;;;;;;;35.60;11.77;;;;;;;;;;5061391;28;20086;-67
2021/10/27 01:57:22;;;;;;;35.72;12.07;;;;;;;;;;5053334;28;20532;-68
2021/10/27 01:59:48;;;;;;;42.38;11.27;;;;;;;;;;5063982;28;20125;-67
2021/10/27 02:02:15;;;;;;;40.67;10.82;;;;;;;;;;5060840;28;20080;-67
2021/10/27 02:04:42;;;;;;;34.50;10.10;;;;;;;;;;5059462;28;20045;-67
2021/10/27 02:07:08;;;;;;;37.55;10.02;;;;;;;;;;5067871;28;20071;-68
2021/10/27 02:09:36;;;;;;;29.17;8.77;;;;;;;;;;5061270;28;20080;-68
2021/10/27 02:12:04;;;;;;;27.80;9.02;;;;;;;;;;5064385;28;20081;-67
2021/10/27 02:14:30;;;;;;;;;;;;;;;;;;5065027;28;20132;-67
2021/10/27 02:16:57;;;;;;;24.60;8.32;;;;;;;;;;5063730;28;19972;-67
2021/10/27 02:19:24;;;;;;;32.65;7.43;;;;;;;;;;5063452;28;20110;-68
2021/10/27 02:21:52;;;;;;;28.13;7.10;;;;;;;;;;5065770;28;20087;-67
2021/10/27 02:24:18;;;;;;;17.90;5.85;;;;;;;;;;5067014;28;20124;-68
2021/10/27 02:26:46;;;;;;;26.23;6.78;;;;;;;;;;5061706;28;20132;-68
2021/10/27 02:29:13;;;;;;;20.20;5.28;;;;;;;;;;5063115;28;20076;-68
2021/10/27 02:31:39;;;;;;;20.63;5.07;;;;;;;;;;5058721;28;20057;-67
2021/10/27 02:34:06;;;;;;;15.32;4.63;;;;;;;;;;5067392;28;20096;-67
2021/10/27 02:36:32;;;;;;;14.55;4.90;;;;;;;;;;5066697;28;20091;-67
2021/10/27 02:38:59;;;;;;;13.25;4.18;;;;;;;;;;5061907;28;20087;-67
2021/10/27 02:41:26;;;;;;;;;;;;;;;;;;5064130;28;20053;-68
2021/10/27 02:43:53;;;;;;;14.57;3.70;;;;;;;;;;5064986;28;20364;-68
2021/10/27 02:46:19;;;;;;;13.57;3.40;;;;;;;;;;5046011;28;20136;-67
2021/10/27 02:48:46;;;;;;;8.30;3.78;;;;;;;;;;5062597;28;20107;-67
2021/10/27 02:51:13;;;;;;;13.23;3.05;;;;;;;;;;5063633;28;20076;-68
2021/10/27 02:53:39;;;;;;;15.38;3.75;;;;;;;;;;5062585;28;20124;-67
2021/10/27 02:56:06;;;;;;;7.70;2.72;;;;;;;;;;5067356;28;20589;-67
2021/10/27 02:58:32;;;;;;;5.80;2.45;;;;;;;;;;5066239;28;20094;-68
2021/10/27 03:00:59;;;;;;;6.32;2.47;;;;;;;;;;5061796;28;20084;-67
2021/10/27 03:03:26;;;;;;;4.28;2.30;;;;;;;;;;5063489;28;20055;-67
2021/10/27 03:05:53;;;;;;;5.93;2.20;;;;;;;;;;5063034;28;20080;-68
2021/10/27 03:08:19;;;;;;;3.80;1.83;;;;;;;;;;5065729;28;20135;-67
2021/10/27 03:10:47;;;;;;;9.52;1.95;;;;;;;;;;5064693;28;20123;-68
2021/10/27 03:13:13;;;;;;;5.50;1.60;;;;;;;;;;5060748;28;20833;-68
2021/10/27 03:15:40;;;;;;;6.47;2.10;;;;;;;;;;5059079;28;20056;-68
2021/10/27 03:18:07;;;;;;;4.50;1.80;;;;;;;;;;5067675;28;20546;-69
2021/10/27 03:20:33;;;;;;;3.08;1.65;;;;;;;;;;5059494;28;20334;-68
2021/10/27 03:23:00;;;;;;;2.97;1.52;;;;;;;;;;5061661;28;20076;-68
2021/10/27 03:25:29;;;;;;;6.88;1.67;;;;;;;;;;5063385;28;20076;-68
2021/10/27 03:27:55;;;;;;;3.28;1.30;;;;;;;;;;5064935;28;20040;-68
2021/10/27 03:30:22;;;;;;;3.47;1.60;;;;;;;;;;5061294;28;20085;-68
2021/10/27 03:32:49;;;;;;;2.40;1.05;;;;;;;;;;5067073;28;20127;-68
2021/10/27 03:35:15;;;;;;;2.38;1.27;;;;;;;;;;5060837;28;20092;-69
2021/10/27 03:37:41;;;;;;;1.73;1.10;;;;;;;;;;5064330;28;20135;-68
2021/10/27 03:40:10;;;;;;;2.47;1.30;;;;;;;;;;5062838;28;20095;-68
2021/10/27 03:42:36;;;;;;;2.90;1.15;;;;;;;;;;5048945;28;20128;-68
2021/10/27 03:45:03;;;;;;;3.33;1.00;;;;;;;;;;5060126;28;20084;-69
2021/10/27 03:47:30;;;;;;;4.13;0.90;;;;;;;;;;5057198;28;20516;-69
2021/10/27 03:49:56;;;;;;;1.02;0.93;;;;;;;;;;5063291;28;20052;-69
2021/10/27 03:52:23;;;;;;;4.43;0.90;;;;;;;;;;5061674;28;20136;-69
2021/10/27 03:54:50;;;;;;;3.47;0.95;;;;;;;;;;5059615;28;20131;-69
2021/10/27 03:57:17;;;;;;;0.95;0.80;;;;;;;;;;5060559;28;20045;-68
2021/10/27 03:59:43;;;;;;;2.20;0.98;;;;;;;;;;5066689;28;20083;-68
2021/10/27 04:02:10;;;;;;;1.15;0.85;;;;;;;;;;5058954;28;20072;-69
2021/10/27 04:04:37;;;;;;;4.30;1.20;;;;;;;;;;5061600;28;20060;-68
2021/10/27 04:07:03;;;;;;;4.40;1.27;;;;;;;;;;5066893;28;20118;-69
2021/10/27 04:09:30;;;;;;;2.20;1.33;;;;;;;;;;5062581;28;20086;-68
2021/10/27 04:11:56;;;;;;;2.08;1.30;;;;;;;;;;5057283;28;20080;-69
2021/10/27 04:14:23;;;;;;;6.43;1.70;;;;;;;;;;5060150;28;20048;-69
2021/10/27 04:16:50;;;;;;;3.28;1.48;;;;;;;;;;5063229;28;20069;-69
2021/10/27 04:19:16;;;;;;;3.45;1.58;;;;;;;;;;5044601;28;20096;-68
2021/10/27 04:21:42;;;;;;;5.35;2.20;;;;;;;;;;5065324;28;20523;-68
2021/10/27 04:24:11;;;;;;;5.32;2.00;;;;;;;;;;5063328;28;20504;-69
2021/10/27 04:26:37;;;;;;;8.53;2.30;;;;;;;;;;5064243;28;20479;-69
2021/10/27 04:29:04;;;;;;;8.55;2.85;;;;;;;;;;5064070;28;20382;-68
2021/10/27 04:31:31;;;;;;;6.65;3.30;;;;;;;;;;5061515;28;20140;-69
2021/10/27 04:33:58;;;;;;;9.43;3.47;;;;;;;;;;5060799;28;20079;-69
2021/10/27 04:36:24;;;;;;;8.23;4.28;;;;;;;;;;5062174;28;20139;-69
2021/10/27 04:38:51;;;;;;;15.60;4.83;;;;;;;;;;5064816;28;20505;-69
2021/10/27 04:41:17;;;;;;;11.60;5.50;;;;;;;;;;5054720;28;20299;-69
2021/10/27 04:43:44;;;;;;;11.60;4.88;;;;;;;;;;5058679;28;20469;-69
2021/10/27 04:46:11;;;;;;;7.80;4.77;;;;;;;;;;5060777;28;20587;-69
2021/10/27 04:48:37;;;;;;;17.92;5.53;;;;;;;;;;5062604;28;20660;-69
2021/10/27 04:51:04;;;;;;;17.92;6.40;;;;;;;;;;5066215;28;20049;-69
2021/10/27 04:53:31;;;;;;;12.38;5.97;;;;;;;;;;5069455;28;20124;-69
2021/10/27 04:55:57;;;;;;;17.60;7.53;;;;;;;;;;5065115;28;20084;-69
2021/10/27 04:58:28;;;;;;;23.45;7.82;;;;;;;;;;5071130;28;20055;-69
2021/10/27 05:00:54;;;;;;;18.58;7.75;;;;;;;;;;5069231;28;20449;-69
2021/10/27 05:03:21;;;;;;;25.45;7.20;;;;;;;;;;5064688;28;20052;-69
2021/10/27 05:05:54;;;;;;;16.00;5.90;;;;;;;;;;5063109;28;20120;-69
2021/10/27 05:08:24;;;;;;;20.83;7.65;;;;;;;;;;5058231;28;20137;-69
2021/10/27 05:10:51;;;;;;;26.88;7.45;;;;;;;;;;5064280;28;20049;-69
2021/10/27 05:13:19;;;;;;;23.40;7.03;;;;;;;;;;5065221;28;20128;-69
2021/10/27 05:15:46;;;;;;;10.88;5.95;;;;;;;;;;5068266;28;20432;-70
2021/10/27 05:18:13;;;;;;;17.60;6.90;;;;;;;;;;5064564;28;20059;-69
2021/10/27 05:20:39;;;;;;;21.00;7.05;;;;;;;;;;5048170;28;20567;-69
2021/10/27 05:23:06;;;;;;;19.98;7.20;;;;;;;;;;5063909;28;20045;-69
2021/10/27 05:25:33;;;;;;;36.83;8.27;;;;;;;;;;5049832;28;20087;-69
2021/10/27 05:27:59;;;;;;;26.95;7.25;;;;;;;;;;5063263;28;20384;-69
2021/10/27 05:30:27;;;;;;;24.38;7.20;;;;;;;;;;5060426;28;20102;-70
2021/10/27 05:32:56;;;;;;;26.00;7.10;;;;;;;;;;5062253;28;20203;-69
2021/10/27 05:35:24;;;;;;;23.33;7.50;;;;;;;;;;5067162;28;20095;-69
2021/10/27 05:37:50;;;;;;;20.85;7.22;;;;;;;;;;5060882;28;20136;-69
2021/10/27 05:40:17;;;;;;;22.05;7.25;;;;;;;;;;5063797;28;20123;-70
2021/10/27 05:42:43;;;;;;;22.50;6.57;;;;;;;;;;5068085;28;20083;-70
2021/10/27 05:45:10;;;;;;;31.35;7.03;;;;;;;;;;5066586;28;20067;-70
2021/10/27 05:47:40;;;;;;;20.83;6.93;;;;;;;;;;5064582;28;20140;-69
2021/10/27 05:55:34;;;;;;;18.33;5.75;;;;;;;;;;5060129;28;20080;-70
2021/10/27 05:58:02;;;;;;;14.77;5.10;;;;;;;;;;5060337;28;20128;-69
2021/10/27 06:00:29;;;;;;;14.65;5.13;;;;;;;;;;5055953;28;20053;-69
2021/10/27 06:02:57;;;;;;;12.30;4.68;;;;;;;;;;5058286;28;20049;-69
2021/10/27 06:05:23;;;;;;;13.75;4.97;;;;;;;;;;5062007;28;20091;-69
2021/10/27 06:07:50;;;;;;;14.25;4.20;;;;;;;;;;5063980;28;20132;-70
2021/10/27 06:10:22;;;;;;;10.50;4.72;;;;;;;;;;5069339;28;20110;-70
2021/10/27 06:12:51;;;;;;;9.55;3.88;;;;;;;;;;5067215;28;20057;-70
2021/10/27 06:15:19;;;;;;;10.85;4.20;;;;;;;;;;5064655;28;20169;-70
2021/10/27 06:17:46;;;;;;;17.50;5.15;;;;;;;;;;5068642;28;20091;-70
2021/10/27 06:20:13;;;;;;;15.95;4.28;;;;;;;;;;5062949;28;20097;-69
2021/10/27 06:22:40;;;;;;;10.67;3.83;;;;;;;;;;5060534;28;20132;-70
2021/10/27 06:25:08;;;;;;;12.05;4.18;;;;;;;;;;5057890;28;20125;-69
2021/10/27 06:27:36;;;;;;;17.73;3.90;;;;;;;;;;5064279;28;20134;-69
2021/10/27 06:30:43;;;;;;;24.57;5.20;;;;;;;;;;5065129;28;20044;-69
2021/10/27 06:35:32;;;;;;;15.68;4.95;;;;;;;;;;5064402;28;20095;-69
2021/10/27 06:38:16;;;;;;;19.42;5.15;;;;;;;;;;5066810;28;20700;-69
2021/10/27 06:48:59;;;;;;;29.48;7.18;;;;;;;;;;5066386;28;20618;-69
2021/10/27 06:51:26;;;;;;;36.57;7.63;;;;;;;;;;5056130;28;20052;-69
2021/10/27 06:53:53;;;;;;;37.08;6.93;;;;;;;;;;5064306;28;20076;-70
2021/10/27 06:56:22;;;;;;;32.50;6.68;;;;;;;;;;5061308;28;20127;-70
2021/10/27 06:58:55;;;;;;;43.80;8.07;;;;;;;;;;5061499;28;20131;-69
2021/10/27 07:01:28;;;;;;;31.48;6.65;;;;;;;;;;5058650;28;20152;-70
2021/10/27 07:06:42;;;;;;;30.47;6.77;;;;;;;;;;5059484;28;20045;-69
2021/10/27 07:17:21;;;;;;;20.40;5.47;;;;;;;;;;5056156;28;20064;-70
2021/10/27 07:19:48;;;;;;;24.27;4.85;;;;;;;;;;5062438;28;20132;-69
2021/10/27 07:22:14;;;;;;;17.52;5.22;;;;;;;;;;5058985;28;20092;-70
2021/10/27 07:24:43;;;;;;;15.25;4.28;;;;;;;;;;5061768;28;20099;-70
2021/10/27 07:27:10;;;;;;;15.57;3.88;;;;;;;;;;5067130;28;20147;-70
2021/10/27 07:29:37;;;;;;;;;;;;;;;;;;5065436;28;20136;-70
2021/10/27 07:32:06;;;;;;;13.60;3.33;;;;;;;;;;5064016;28;19963;-69
2021/10/27 07:34:56;;;;;;;12.30;3.80;;;;;;;;;;5067314;28;20460;-70
2021/10/27 07:42:54;;;;;;;11.77;3.65;;;;;;;;;;5056107;28;20140;-70
2021/10/27 07:45:26;;;;;;;14.40;3.67;;;;;;;;;;5061682;28;20075;-69
2021/10/27 07:47:54;;;;;;;12.25;3.40;;;;;;;;;;5065922;28;20132;-70
2021/10/27 07:50:22;;;;;;;12.57;3.83;;;;;;;;;;5062605;28;20083;-70
2021/10/27 07:52:49;;;;;;;11.80;3.15;;;;;;;;;;5061575;28;20131;-70
2021/10/27 07:55:15;;;;;;;14.93;2.97;;;;;;;;;;5065032;28;20147;-70
2021/10/27 07:57:43;;;;;;;10.05;2.67;;;;;;;;;;5062144;28;20088;-70
2021/10/27 08:00:10;;;;;;;6.45;2.60;;;;;;;;;;5063955;28;20075;-70
2021/10/27 08:02:37;;;;;;;7.90;2.35;;;;;;;;;;5054631;28;20087;-70
2021/10/27 08:05:04;;;;;;;9.30;2.58;;;;;;;;;;5058274;28;20090;-70
2021/10/27 08:07:30;;;;;;;9.68;2.58;;;;;;;;;;5056600;28;20504;-70
2021/10/27 08:09:57;;;;;;;6.03;2.53;;;;;;;;;;5063800;28;20127;-70
2021/10/27 08:12:23;;;;;;;6.28;2.30;;;;;;;;;;5059348;28;20080;-70
2021/10/27 08:14:50;;;;;;;6.38;2.10;;;;;;;;;;5061602;28;20086;-70
2021/10/27 08:17:19;;;;;;;5.45;2.15;;;;;;;;;;5062266;28;20408;-70
2021/10/27 08:19:48;;;;;;;6.55;1.90;;;;;;;;;;5065092;28;20140;-70
2021/10/27 08:22:15;;;;;;;6.32;2.00;;;;;;;;;;5064709;28;20084;-70
2021/10/27 08:24:41;;;;;;;9.15;2.10;;;;;;;;;;5062742;28;20485;-70
2021/10/27 08:27:28;;;;;;;3.83;1.60;;;;;;;;;;5065191;28;20170;-70
2021/10/27 08:29:57;;;;;;;7.72;1.90;;;;;;;;;;5065430;28;20136;-70
2021/10/27 08:34:53;;;;;;;4.40;1.70;;;;;;;;;;5065312;28;20072;-70
2021/10/27 08:37:20;;;;;;;5.25;1.50;;;;;;;;;;5069639;28;20080;-70
2021/10/27 08:39:46;;;;;;;3.70;1.60;;;;;;;;;;5068933;28;20091;-70
2021/10/27 08:42:13;;;;;;;7.35;1.90;;;;;;;;;;5065225;28;20072;-70
2021/10/27 08:44:43;;;;;;;8.43;1.70;;;;;;;;;;5068900;28;20489;-70
2021/10/27 08:47:10;;;;;;;2.65;1.38;;;;;;;;;;5068914;28;20045;-70
2021/10/27 08:49:37;;;;;;;10.85;2.08;;;;;;;;;;5066571;28;20135;-70
2021/10/27 08:52:08;;;;;;;7.32;1.80;;;;;;;;;;5068859;28;20044;-70
2021/10/27 08:54:35;;;;;;;4.03;1.80;;;;;;;;;;5062081;28;20080;-69
2021/10/27 08:57:06;;;;;;;6.47;1.88;;;;;;;;;;5064778;28;20140;-70
2021/10/27 09:14:20;;;;;;;5.13;1.58;;;;;;;;;;5065872;28;20064;-70
2021/10/27 10:05:12;;;;;;;9.18;2.00;;;;;;;;;;5065524;28;20076;-70
2021/10/27 10:07:39;;;;;;;8.10;2.25;;;;;;;;;;5065009;28;20099;-70
2021/10/27 10:10:07;;;;;;;13.30;1.92;;;;;;;;;;5043267;28;20476;-70
2021/10/27 10:12:33;;;;;;;;;;;;;;;;;;5066098;28;20496;-71
2021/10/27 10:15:00;;;;;;;15.52;2.50;;;;;;;;;;5064639;28;19927;-71
2021/10/27 10:17:26;;;;;;;7.90;2.28;;;;;;;;;;5059783;28;20483;-70
2021/10/27 10:19:53;;;;;;;18.00;2.70;;;;;;;;;;5064614;28;20076;-70
2021/10/27 10:22:30;;;;;;;14.35;2.33;;;;;;;;;;5061763;28;20579;-70
2021/10/27 10:25:14;;;;;;;18.20;3.13;;;;;;;;;;5065692;28;20072;-70
2021/10/27 10:27:44;;;;;;;13.75;2.58;;;;;;;;;;5065781;28;20095;-70
2021/10/27 10:30:27;;;;;;;19.25;3.20;;;;;;;;;;5063864;28;20084;-70
2021/10/27 10:33:03;;;;;;;16.25;2.88;;;;;;;;;;5062962;28;20049;-70
2021/10/27 10:35:41;;;;;;;18.08;3.83;;;;;;;;;;5064890;28;20072;-70
2021/10/27 10:39:00;;;;;;;18.92;3.50;;;;;;;;;;5063618;28;20135;-70
2021/10/27 11:26:32;;;;;;;28.13;4.78;;;;;;;;;;5060014;28;20139;-70
2021/10/27 11:40:22;;;;;;;32.28;4.82;;;;;;;;;;5061554;28;20095;-70
2021/10/27 11:42:51;;;;;;;46.00;6.22;;;;;;;;;;5062380;28;20041;-70
2021/10/27 11:50:39;;;;;;;48.53;6.85;;;;;;;;;;5061892;28;20045;-70
2021/10/27 11:53:17;;;;;;;45.08;7.53;;;;;;;;;;5059478;28;20084;-70
2021/10/27 11:55:44;;;;;;;56.60;7.00;;;;;;;;;;5063957;28;20496;-70
2021/10/27 11:58:11;;;;;;;55.28;8.50;;;;;;;;;;5059731;28;20048;-70
2021/10/27 12:00:40;;;;;;;50.17;7.30;;;;;;;;;;5057849;28;20072;-70
2021/10/27 12:03:15;;;;;;;55.17;7.20;;;;;;;;;;5047721;28;20040;-70
2021/10/27 12:05:53;;;;;;;42.58;6.60;;;;;;;;;;5061833;28;20095;-70
2021/10/27 12:16:24;;;;;;;44.53;6.07;;;;;;;;;;5060131;28;20063;-70
2021/10/27 12:18:55;;;;;;;27.42;4.45;;;;;;;;;;5065749;28;20090;-70
2021/10/27 12:21:23;;;;;;;42.22;5.60;;;;;;;;;;5053791;28;20089;-70
2021/10/27 12:23:50;;;;;;;36.35;5.20;;;;;;;;;;5061131;28;20599;-70
2021/10/27 12:26:19;;;;;;;46.53;5.75;;;;;;;;;;5064760;28;20598;-70
2021/10/27 12:28:47;;;;;;;47.85;6.70;;;;;;;;;;5063643;28;20598;-70
2021/10/27 12:31:17;;;;;;;53.78;6.93;;;;;;;;;;5062680;28;20556;-70
2021/10/27 12:33:44;;;;;;;43.63;7.28;;;;;;;;;;5061189;28;20088;-70
2021/10/27 12:36:25;;;;;;;63.03;8.02;;;;;;;;;;5065142;28;20389;-69
2021/10/27 12:39:10;;;;;;;53.97;7.57;;;;;;;;;;5063726;28;20127;-69
2021/10/27 12:41:36;;;;;;;67.95;8.95;;;;;;;;;;5060939;28;20543;-69
2021/10/27 12:44:16;;;;;;;84.03;9.90;;;;;;;;;;5061553;28;20129;-69
2021/10/27 12:46:42;;;;;;;62.78;8.93;;;;;;;;;;5061249;28;20128;-69
2021/10/27 12:49:19;;;;;;;74.40;9.48;;;;;;;;;;5064118;28;20102;-69
2021/10/27 12:51:45;;;;;;;53.90;8.70;;;;;;;;;;5065332;28;20115;-69
2021/10/27 12:54:12;;;;;;;80.03;10.75;;;;;;;;;;5063972;28;20062;-69
2021/10/27 12:56:38;;;;;;;86.95;10.00;;;;;;;;;;5063837;28;20124;-69
2021/10/27 12:59:08;;;;;;;83.90;10.00;;;;;;;;;;5060555;28;20475;-69
2021/10/27 13:01:45;;;;;;;85.78;10.13;;;;;;;;;;5067263;28;20091;-69
2021/10/27 13:20:17;;;;;;;47.65;6.35;;;;;;;;;;5062604;28;20088;-69
2021/10/27 13:22:53;;;;;;;38.72;7.03;;;;;;;;;;5069005;28;20133;-70
2021/10/27 13:30:56;;;;;;;61.33;8.30;;;;;;;;;;5066725;28;20079;-69
2021/10/27 13:33:24;;;;;;;40.70;6.72;;;;;;;;;;5066805;28;20139;-69
2021/10/27 13:35:51;;;;;;;54.42;7.05;;;;;;;;;;5069269;28;20076;-69
2021/10/27 13:38:19;;;;;;;44.35;7.03;;;;;;;;;;5062630;28;20505;-69
2021/10/27 13:40:47;;;;;;;51.72;7.15;;;;;;;;;;5067547;28;20074;-69
2021/10/27 13:46:14;;;;;;;64.18;8.55;;;;;;;;;;5065983;28;20135;-69
2021/10/27 14:08:16;;;;;;;65.22;8.48;;;;;;;;;;5062882;28;20072;-69
2021/10/27 14:10:53;;;;;;;70.78;10.00;;;;;;;;;;5063493;28;20086;-69
2021/10/27 14:22:20;;;;;;;62.28;9.07;;;;;;;;;;5062400;28;20076;-69
2021/10/27 15:21:26;;;;;;;62.90;8.57;;;;;;;;;;5059871;28;20135;-69
2021/10/27 15:24:09;;;;;;;66.80;8.93;;;;;;;;;;5062100;28;20164;-69
2021/10/27 15:34:46;;;;;;;57.03;7.65;;;;;;;;;;5059268;28;20830;-69
2021/10/27 15:50:48;;;;;;;52.20;8.20;;;;;;;;;;5068960;28;20076;-69
2021/10/27 15:53:16;;;;;;;53.53;8.18;;;;;;;;;;5066158;28;20063;-69
2021/10/27 15:55:43;;;;;;;54.25;8.32;;;;;;;;;;5058380;28;20049;-69
2021/10/27 15:58:09;;;;;;;75.95;8.73;;;;;;;;;;5062415;28;20080;-69
2021/10/27 16:00:39;;;;;;;67.97;8.63;;;;;;;;;;5063438;28;20127;-69
2021/10/27 16:03:07;;;;;;;76.82;9.90;;;;;;;;;;5066325;28;20047;-70
2021/10/27 16:05:38;;;;;;;67.93;9.65;;;;;;;;;;5060523;28;20068;-70
2021/10/27 16:08:10;;;;;;;62.38;8.05;;;;;;;;;;5059233;28;20075;-69
2021/10/27 16:10:37;;;;;;;62.95;8.25;;;;;;;;;;5066966;28;20135;-69
2021/10/27 16:13:03;;;;;;;51.90;8.10;;;;;;;;;;5058321;28;20048;-69
2021/10/27 16:15:38;;;;;;;63.15;9.25;;;;;;;;;;5059336;28;20076;-69
2021/10/27 16:18:11;;;;;;;67.63;9.73;;;;;;;;;;5060972;28;20086;-69
2021/10/27 16:20:38;;;;;;;;;;;;;;;;;;5065648;28;20685;-69
2021/10/27 16:23:05;;;;;;;57.65;7.72;;;;;;;;;;5060851;28;19971;-69
2021/10/27 16:25:31;;;;;;;75.57;9.68;;;;;;;;;;5063722;28;20074;-69
2021/10/27 16:27:58;;;;;;;95.88;10.35;;;;;;;;;;5058554;28;20132;-69
2021/10/27 16:30:26;;;;;;;74.93;10.18;;;;;;;;;;5064049;28;20080;-69
2021/10/27 16:32:52;;;;;;;78.57;10.82;;;;;;;;;;5060115;28;20052;-69
2021/10/27 16:35:19;;;;;;;75.30;9.40;;;;;;;;;;5063108;28;20068;-69
2021/10/27 16:37:45;;;;;;;73.68;10.40;;;;;;;;;;5064098;28;20068;-70
2021/10/27 16:40:12;;;;;;;65.00;9.88;;;;;;;;;;5047115;28;20580;-69
2021/10/27 16:42:39;;;;;;;69.50;9.52;;;;;;;;;;5064037;28;20132;-70
2021/10/27 16:45:06;;;;;;;63.75;9.98;;;;;;;;;;5058474;28;20102;-70
2021/10/27 16:47:33;;;;;;;78.43;9.75;;;;;;;;;;5069361;28;20147;-70
2021/10/27 16:50:00;;;;;;;58.88;9.63;;;;;;;;;;5068371;28;20135;-69
2021/10/27 16:52:27;;;;;;;69.88;9.73;;;;;;;;;;5068207;28;20048;-70
2021/10/27 16:54:56;;;;;;;76.93;10.05;;;;;;;;;;5066901;28;20048;-69
2021/10/27 16:57:23;;;;;;;68.28;8.80;;;;;;;;;;5061065;28;20090;-69
2021/10/27 16:59:50;;;;;;;60.78;8.50;;;;;;;;;;5060612;28;20134;-70
2021/10/27 17:02:16;;;;;;;56.60;8.63;;;;;;;;;;5060902;28;20064;-69
2021/10/27 17:04:44;;;;;;;58.33;8.15;;;;;;;;;;5059985;28;20063;-70
2021/10/27 17:07:11;;;;;;;44.42;8.13;;;;;;;;;;5060842;28;20075;-70
2021/10/27 17:09:38;;;;;;;61.40;8.13;;;;;;;;;;5062373;28;20054;-69
2021/10/27 17:12:06;;;;;;;61.83;9.18;;;;;;;;;;5059536;28;20067;-70
2021/10/27 17:14:34;;;;;;;53.90;8.27;;;;;;;;;;5059850;28;20147;-69
2021/10/27 17:17:04;;;;;;;70.13;8.75;;;;;;;;;;5059297;28;20044;-69
2021/10/27 17:19:31;;;;;;;57.83;7.65;;;;;;;;;;5060404;28;20095;-69
2021/10/27 17:21:58;;;;;;;77.30;10.00;;;;;;;;;;5059712;28;20559;-71
2021/10/27 17:24:26;;;;;;;69.05;9.55;;;;;;;;;;5061503;28;20076;-69
2021/10/27 17:27:13;;;;;;;60.67;8.73;;;;;;;;;;5059764;28;20067;-70
2021/10/27 17:29:39;;;;;;;68.53;8.85;;;;;;;;;;5060521;28;20139;-69
2021/10/27 17:32:06;;;;;;;62.70;8.85;;;;;;;;;;5059308;28;20131;-69
2021/10/27 17:34:34;;;;;;;55.15;8.15;;;;;;;;;;5059845;28;20508;-69
2021/10/27 17:37:00;;;;;;;59.67;8.90;;;;;;;;;;5059578;28;20140;-69
2021/10/27 17:39:27;;;;;;;48.50;7.95;;;;;;;;;;5059357;28;20119;-69
2021/10/27 17:41:56;;;;;;;74.63;9.60;;;;;;;;;;5061232;28;20059;-69
2021/10/27 17:44:23;;;;;;;59.90;9.02;;;;;;;;;;5058665;28;20110;-69
2021/10/27 17:47:00;;;;;;;71.13;8.90;;;;;;;;;;5058888;28;20052;-69
2021/10/27 17:52:29;;;;;;;67.55;10.20;;;;;;;;;;5062146;28;20131;-69
2021/10/27 17:58:23;;;;;;;54.45;8.20;;;;;;;;;;5065256;28;20074;-69
2021/10/27 18:00:36;;;;;;;64.55;8.60;;;;;;;;;;5060824;28;20052;-69
2021/10/27 18:03:03;;;;;;;40.65;7.53;;;;;;;;;;5066057;28;20053;-69
2021/10/27 18:05:30;;;;;;;59.60;8.40;;;;;;;;;;5067261;28;20044;-70
2021/10/27 18:07:57;;;;;;;52.38;7.65;;;;;;;;;;5065136;28;20095;-69
2021/10/27 18:10:25;;;;;;;;;;;;;;;;;;5066317;28;20091;-69
2021/10/27 18:12:53;;;;;;;62.92;9.20;;;;;;;;;;5064781;28;20368;-69
2021/10/27 18:15:20;;;;;;;67.97;8.57;;;;;;;;;;5068343;28;20079;-69
2021/10/27 18:17:47;;;;;;;;;;;;;;;;;;5060764;28;20048;-69
2021/10/27 18:20:24;;;;;;;56.85;8.32;;;;;;;;;;5061574;28;20207;-69
2021/10/27 18:28:27;;;;;;;84.07;10.65;;;;;;;;;;5065444;28;20124;-69
2021/10/27 18:36:44;;;;;;;71.15;9.18;;;;;;;;;;5057303;28;20460;-69
2021/10/27 18:41:59;;;;;;;57.20;9.05;;;;;;;;;;5063339;28;20631;-69
2021/10/27 18:44:25;;;;;;;55.13;9.38;;;;;;;;;;5060386;28;20079;-70
2021/10/27 18:46:52;;;;;;;54.85;9.85;;;;;;;;;;5066866;28;20151;-69
2021/10/27 18:49:19;;;;;;;69.43;9.38;;;;;;;;;;5061425;28;20048;-69
2021/10/27 18:54:49;;;;;;;75.32;10.25;;;;;;;;;;5044847;28;20125;-70
2021/10/27 18:57:33;;;;;;;98.13;11.20;;;;;;;;;;5054606;28;20056;-69
2021/10/27 19:02:48;;;;;;;83.00;11.85;;;;;;;;;;5058858;28;20131;-69
2021/10/27 19:16:00;;;;;;;78.70;10.88;;;;;;;;;;5057887;28;20084;-70
2021/10/27 19:18:26;;;;;;;73.95;11.00;;;;;;;;;;5060689;28;20055;-70
2021/10/27 19:20:56;;;;;;;82.15;12.10;;;;;;;;;;5042629;28;20216;-70
2021/10/27 19:23:23;;;;;;;99.35;11.90;;;;;;;;;;5040611;28;20076;-71
2021/10/27 20:09:15;;;;;;;78.32;12.80;;;;;;;;;;5041409;28;20565;-69
2021/10/27 20:17:21;;;;;;;68.55;12.65;;;;;;;;;;5043222;28;20136;-70
2021/10/27 20:52:07;;;;;;;26.33;7.47;;;;;;;;;;5058218;28;20219;-70
2021/10/27 20:54:34;;;;;;;27.65;7.03;;;;;;;;;;5060378;28;20576;-70
2021/10/27 20:57:08;;;;;;;34.47;7.43;;;;;;;;;;5063753;28;20057;-70
2021/10/27 21:12:59;;;;;;;22.63;5.20;;;;;;;;;;5058973;28;20099;-70
2021/10/27 21:15:26;;;;;;;22.48;4.32;;;;;;;;;;5066795;28;20056;-70
2021/10/27 21:17:54;;;;;;;13.27;3.63;;;;;;;;;;5063283;28;20094;-70
2021/10/27 21:20:20;;;;;;;18.58;4.15;;;;;;;;;;5063423;28;20298;-70
2021/10/27 21:22:47;;;;;;;18.38;3.97;;;;;;;;;;5063375;28;20051;-70
2021/10/27 21:25:16;;;;;;;12.93;3.97;;;;;;;;;;5060674;28;20282;-70
2021/10/27 21:44:24;;;;;;;9.70;3.03;;;;;;;;;;5065050;28;20084;-70
2021/10/27 21:46:51;;;;;;;9.63;3.25;;;;;;;;;;5063253;28;20091;-70
2021/10/27 21:49:17;;;;;;;8.25;3.20;;;;;;;;;;5065882;28;20084;-70
2021/10/27 21:51:44;;;;;;;11.25;3.10;;;;;;;;;;5066130;28;20867;-70
2021/10/27 21:54:10;;;;;;;11.70;3.13;;;;;;;;;;5061985;28;20127;-70
2021/10/27 21:56:37;;;;;;;10.55;3.13;;;;;;;;;;5061047;28;20135;-71
2021/10/27 21:59:03;;;;;;;7.35;2.70;;;;;;;;;;5065961;28;20155;-70
2021/10/27 22:01:31;;;;;;;10.10;3.08;;;;;;;;;;5060920;28;20136;-70
2021/10/27 22:03:57;;;;;;;;;;;;;;;;;;5065804;28;20559;-70
2021/10/27 22:06:24;;;;;;;12.63;3.13;;;;;;;;;;5065782;28;20023;-70
2021/10/27 22:08:50;;;;;;;8.30;2.92;;;;;;;;;;5059521;28;20055;-70